Time;durP1;ratioP1;P1;durP2;ratioP2;P2;SDS_P1;SDS_P2;PMS_P1;PMS_P2;Temp;Humidity;BMP_temperature;BMP_pressure;BME280_temperature;BME280_humidity;BME280_pressure;Samples;Min_cycle;Max_cycle;Signal;HPM_P1;HPM_P2
2022/11/11 00:11:05;;;;;;;10.73;3.00;;;;;;;9.69;90.47;102060.53;4933971;28;20054;-74
2022/11/11 00:13:34;;;;;;;10.18;2.70;;;;;;;9.65;90.89;102064.16;4932142;28;20052;-74
2022/11/11 00:45:25;;;;;;;11.98;3.33;;;;;;;9.41;92.12;102092.09;4933162;28;20431;-75
2022/11/11 00:52:18;;;;;;;10.43;2.70;;;;;;;9.42;91.53;102093.81;4924966;28;20050;-76
2022/11/11 00:54:46;;;;;;;10.90;2.72;;;;;;;9.42;91.89;102092.97;4928947;28;20055;-75
2022/11/11 00:57:13;;;;;;;18.10;3.53;;;;;;;9.39;92.13;102086.88;4932426;28;20063;-74
2022/11/11 00:59:42;;;;;;;13.05;2.90;;;;;;;9.39;92.24;102078.13;4928192;28;20054;-75
2022/11/11 01:02:10;;;;;;;10.50;3.35;;;;;;;9.35;92.69;102076.50;4931914;28;20052;-75
2022/11/11 01:04:37;;;;;;;11.38;3.00;;;;;;;9.34;92.11;102085.28;4917989;28;20559;-74
2022/11/11 01:07:05;;;;;;;10.63;2.47;;;;;;;9.26;92.94;102071.53;4922122;28;20134;-76
2022/11/11 01:09:32;;;;;;;10.55;3.00;;;;;;;9.26;93.05;102061.00;4923364;28;20048;-75
2022/11/11 01:12:00;;;;;;;11.35;2.92;;;;;;;9.26;92.96;102047.88;4931146;28;20067;-73
2022/11/11 01:14:27;;;;;;;12.38;3.05;;;;;;;9.23;93.39;102042.69;4931020;28;20055;-74
2022/11/11 01:16:55;;;;;;;13.00;3.38;;;;;;;9.26;92.71;102050.50;4921399;28;20056;-75
2022/11/11 01:19:23;;;;;;;12.65;3.25;;;;;;;9.25;92.93;102052.28;4927238;28;20864;-74
2022/11/11 01:21:50;;;;;;;11.52;2.90;;;;;;;9.27;92.40;102052.22;4925041;28;22021;-75
2022/11/11 01:24:18;;;;;;;13.75;3.60;;;;;;;9.29;92.44;102053.91;4964973;28;20058;-75
2022/11/11 01:32:07;;;;;;;9.70;2.60;;;;;;;9.19;93.45;102046.34;4924997;28;20051;-76
2022/11/11 01:34:35;;;;;;;15.55;3.50;;;;;;;9.21;93.22;102041.91;4924759;28;20044;-74
2022/11/11 01:37:02;;;;;;;14.50;3.42;;;;;;;9.13;93.84;102040.34;4925641;28;20630;-74
2022/11/11 01:39:30;;;;;;;13.63;4.78;;;;;;;9.13;94.04;102052.63;4924902;28;20047;-75
2022/11/11 01:41:58;;;;;;;9.18;3.10;;;;;;;9.11;93.99;102046.59;4923390;28;20059;-75
2022/11/11 01:44:43;;;;;;;11.10;3.00;;;;;;;9.14;93.90;102051.75;4929192;28;20630;-76
2022/11/11 01:47:11;;;;;;;19.52;3.47;;;;;;;9.12;93.82;102051.78;4946043;29;20051;-75
2022/11/11 01:54:08;;;;;;;9.27;3.20;;;;;;;9.05;94.08;102052.00;4931145;28;20182;-76
2022/11/11 01:56:37;;;;;;;11.85;3.13;;;;;;;9.07;94.02;102051.06;4945596;28;20115;-74
2022/11/11 01:59:10;;;;;;;10.70;2.83;;;;;;;9.08;94.09;102063.28;4925995;28;20048;-76
2022/11/11 02:01:39;;;;;;;9.75;3.50;;;;;;;9.11;93.65;102067.59;4941972;28;20052;-76
2022/11/11 02:06:55;;;;;;;10.60;2.92;;;;;;;9.16;93.19;102081.44;4962729;28;20062;-75
2022/11/11 02:09:23;;;;;;;10.43;2.70;;;;;;;9.17;92.70;102088.41;4915946;28;20254;-75
2022/11/11 02:14:42;;;;;;;7.93;3.00;;;;;;;9.10;93.77;102086.91;4938481;28;20052;-74
2022/11/11 02:17:12;;;;;;;14.32;3.88;;;;;;;9.07;93.94;102094.88;4929876;28;20585;-74
2022/11/11 02:19:49;;;;;;;13.30;3.13;;;;;;;9.11;92.91;102089.47;4922968;28;20056;-75
2022/11/11 02:22:40;;;;;;;15.52;4.18;;;;;;;9.11;92.80;102088.63;4917852;28;20059;-76
2022/11/11 02:25:10;;;;;;;11.25;2.67;;;;;;;9.09;93.25;102086.00;4928823;29;20040;-75
2022/11/11 02:27:41;;;;;;;10.15;2.95;;;;;;;9.07;93.06;102108.00;4927517;28;20056;-75
2022/11/11 02:30:14;;;;;;;11.20;3.00;;;;;;;9.07;93.50;102103.59;4929451;28;20055;-75
2022/11/11 02:32:43;;;;;;;9.40;3.15;;;;;;;9.03;93.54;102109.84;4928672;29;20055;-75
2022/11/11 02:35:28;;;;;;;10.70;2.90;;;;;;;9.02;93.91;102109.91;4924271;28;20068;-75
2022/11/11 02:37:56;;;;;;;10.27;3.13;;;;;;;9.06;93.37;102107.13;4907896;28;20147;-74
2022/11/11 02:40:37;;;;;;;10.57;3.13;;;;;;;9.04;93.73;102097.56;4909798;28;20056;-75
2022/11/11 02:43:05;;;;;;;12.50;3.58;;;;;;;9.02;93.67;102097.63;4925523;28;20524;-74
2022/11/11 02:45:33;;;;;;;9.52;3.13;;;;;;;9.01;93.90;102102.94;4920124;28;20049;-75
2022/11/11 02:48:01;;;;;;;8.85;3.30;;;;;;;8.96;94.04;102092.56;4929970;28;20075;-74
2022/11/11 02:50:28;;;;;;;8.57;2.88;;;;;;;8.89;94.24;102091.00;4929553;28;20055;-75
2022/11/11 02:52:56;;;;;;;12.18;3.45;;;;;;;8.94;94.28;102090.88;4923918;28;20134;-74
2022/11/11 02:55:23;;;;;;;11.55;3.53;;;;;;;8.90;94.27;102090.09;4923103;28;20055;-74
2022/11/11 02:57:51;;;;;;;11.23;3.10;;;;;;;8.92;94.04;102095.31;4925332;28;20055;-74
2022/11/11 03:00:19;;;;;;;8.35;2.72;;;;;;;8.88;93.99;102098.03;4927204;28;20055;-75
2022/11/11 03:02:46;;;;;;;8.15;2.78;;;;;;;8.92;93.64;102104.06;4924430;29;20056;-75
2022/11/11 03:05:14;;;;;;;15.38;3.20;;;;;;;9.00;93.04;102102.03;4931113;28;20060;-76
2022/11/11 03:07:42;;;;;;;8.32;3.20;;;;;;;9.02;93.13;102105.50;4926193;28;20044;-74
2022/11/11 03:10:10;;;;;;;10.63;3.30;;;;;;;9.07;92.25;102100.97;4929505;28;20047;-76
2022/11/11 03:12:37;;;;;;;12.45;3.80;;;;;;;9.05;92.27;102084.41;4928250;28;20063;-74
2022/11/11 03:15:06;;;;;;;10.65;2.80;;;;;;;8.99;93.71;102088.97;4941693;28;20062;-73
2022/11/11 03:17:39;;;;;;;8.15;2.75;;;;;;;8.92;93.75;102087.44;4936394;29;20061;-75
2022/11/11 03:23:13;;;;;;;11.65;3.08;;;;;;;8.85;94.38;102081.47;4933904;28;20110;-74
2022/11/11 03:25:43;;;;;;;13.45;3.25;;;;;;;8.83;94.63;102089.41;4924135;29;20048;-75
2022/11/11 03:28:16;;;;;;;8.95;3.25;;;;;;;8.87;94.61;102080.53;4931293;28;20056;-74
2022/11/11 03:30:45;;;;;;;8.18;2.53;;;;;;;8.81;94.62;102079.84;4929237;28;20055;-74
2022/11/11 03:33:14;;;;;;;8.60;3.00;;;;;;;8.84;94.69;102075.38;4917174;28;20657;-74
2022/11/11 04:33:15;;;;;;;12.82;3.42;;;;;;;8.76;94.70;102053.72;4920611;28;20142;-74
2022/11/11 04:35:48;;;;;;;12.43;3.22;;;;;;;8.83;93.88;102047.41;4921409;29;20048;-74
2022/11/11 04:41:05;;;;;;;12.10;3.45;;;;;;;8.84;93.71;102058.75;4924588;29;20113;-73
2022/11/11 04:45:26;;;;;;;8.13;2.67;;;;;;;8.85;93.02;102053.44;4911841;28;20047;-73
2022/11/11 04:46:20;;;;;;;8.57;2.90;;;;;;;8.86;93.61;102062.19;4913630;28;20186;-72
2022/11/11 04:48:48;;;;;;;17.45;3.45;;;;;;;8.89;93.78;102067.34;4925716;28;20052;-74
2022/11/11 04:51:15;;;;;;;12.10;4.20;;;;;;;8.82;93.93;102076.31;4934793;28;20114;-73
2022/11/11 04:53:43;;;;;;;11.38;3.35;;;;;;;8.73;94.75;102071.31;4922150;29;20484;-74
2022/11/11 06:53:14;;;;;;;13.82;4.38;;;;;;;8.56;94.32;102129.56;4923314;28;20555;-76
2022/11/11 06:55:42;;;;;;;11.73;3.47;;;;;;;8.54;94.37;102124.31;4919896;28;20118;-75
2022/11/11 06:58:11;;;;;;;10.02;3.53;;;;;;;8.55;94.40;102114.69;4922196;28;20056;-75
2022/11/11 07:00:39;;;;;;;11.80;4.22;;;;;;;8.60;94.08;102118.94;4942548;28;20399;-75
2022/11/11 07:03:10;;;;;;;11.13;3.55;;;;;;;8.55;94.22;102122.56;4906705;28;20058;-76
2022/11/11 07:05:37;;;;;;;8.48;3.47;;;;;;;8.53;94.86;102125.22;4921194;28;20048;-75
2022/11/11 07:08:08;;;;;;;8.93;3.35;;;;;;;8.55;94.54;102123.41;4923995;28;20516;-74
2022/11/11 07:10:37;;;;;;;8.57;3.60;;;;;;;8.61;94.31;102128.53;4940695;28;20052;-74
2022/11/11 07:13:05;;;;;;;10.15;3.70;;;;;;;8.62;94.00;102130.25;4932961;28;20072;-74
2022/11/11 07:15:34;;;;;;;11.82;4.07;;;;;;;8.60;94.26;102129.44;4925909;28;20048;-74
2022/11/11 07:18:01;;;;;;;8.63;3.10;;;;;;;8.67;93.82;102138.00;4922025;28;20059;-74
2022/11/11 07:20:29;;;;;;;14.35;4.47;;;;;;;8.69;93.61;102128.31;4922282;28;20090;-75
2022/11/11 07:22:57;;;;;;;8.90;3.05;;;;;;;8.71;92.99;102120.41;4931900;28;20059;-75
2022/11/11 07:25:24;;;;;;;8.27;3.30;;;;;;;8.72;93.22;102125.59;4923922;28;20059;-75
2022/11/11 07:27:52;;;;;;;10.10;3.95;;;;;;;8.70;93.85;102129.19;4922819;28;20075;-74
2022/11/11 07:30:25;;;;;;;9.68;3.45;;;;;;;8.74;93.60;102129.06;4934844;28;20082;-74
2022/11/11 07:32:53;;;;;;;10.15;3.00;;;;;;;8.85;92.34;102134.00;4925861;28;20593;-75
2022/11/11 07:35:21;;;;;;;11.30;3.35;;;;;;;8.88;92.13;102149.69;4919297;28;20063;-74
2022/11/11 07:37:49;;;;;;;13.05;3.33;;;;;;;8.82;92.00;102140.19;4927514;28;20039;-74
2022/11/11 07:40:18;;;;;;;9.40;3.03;;;;;;;8.85;91.87;102149.75;4926931;28;20060;-76
2022/11/11 07:42:45;;;;;;;10.27;3.55;;;;;;;8.85;92.40;102158.50;4910699;28;20055;-75
2022/11/11 07:45:14;;;;;;;6.63;2.60;;;;;;;8.83;91.97;102152.44;4941405;28;20039;-74
2022/11/11 07:47:43;;;;;;;17.35;3.67;;;;;;;8.88;92.38;102160.19;4935539;28;20078;-74
2022/11/11 07:50:12;;;;;;;12.32;4.00;;;;;;;8.88;92.14;102168.94;4942456;28;20060;-74
2022/11/11 07:52:47;;;;;;;14.05;3.85;;;;;;;8.88;92.10;102170.69;4932976;28;20476;-75
2022/11/11 07:55:15;;;;;;;10.15;3.60;;;;;;;8.95;91.42;102160.88;4936589;28;20059;-73
2022/11/11 07:57:42;;;;;;;9.32;3.20;;;;;;;8.94;91.76;102164.41;4922494;28;20516;-75
2022/11/11 08:00:11;;;;;;;7.63;3.78;;;;;;;8.97;91.74;102169.59;4920346;28;20075;-75
2022/11/11 08:02:39;;;;;;;11.70;3.92;;;;;;;8.98;91.75;102176.56;4937946;28;20732;-75
2022/11/11 08:05:08;;;;;;;10.73;3.30;;;;;;;8.95;91.81;102169.59;4922936;28;20051;-74
2022/11/11 08:07:36;;;;;;;10.60;3.50;;;;;;;8.97;92.17;102191.47;4935778;28;20098;-75
2022/11/11 08:10:04;;;;;;;13.20;3.53;;;;;;;9.03;91.50;102170.25;4938974;28;20040;-75
2022/11/11 08:15:18;;;;;;;11.77;3.97;;;;;;;9.07;91.48;102174.53;4921127;28;20081;-75
2022/11/11 08:17:46;;;;;;;8.70;3.22;;;;;;;9.09;90.82;102177.97;4928654;28;20164;-74
2022/11/11 08:20:13;;;;;;;11.30;3.78;;;;;;;9.16;90.79;102181.28;4911745;28;20986;-77
2022/11/11 08:22:41;;;;;;;10.00;3.33;;;;;;;9.15;90.17;102189.22;4945751;28;20094;-76
2022/11/11 08:25:30;;;;;;;8.27;3.13;;;;;;;9.17;90.18;102200.53;4924173;28;20460;-78
2022/11/11 08:28:01;;;;;;;6.25;3.15;;;;;;;9.21;90.03;102200.41;4962276;28;20047;-78
2022/11/11 08:30:30;;;;;;;11.15;4.05;;;;;;;9.22;90.04;102203.91;4933616;28;20052;-77
2022/11/11 08:33:02;;;;;;;8.35;3.75;;;;;;;9.18;90.29;102208.38;4921157;28;20051;-77
2022/11/11 08:35:49;;;;;;;8.52;3.67;;;;;;;9.20;90.29;102210.97;4933769;28;20056;-77
2022/11/11 08:38:16;;;;;;;10.57;3.97;;;;;;;9.21;89.95;102208.31;4928898;28;20529;-77
2022/11/11 08:40:44;;;;;;;12.35;3.40;;;;;;;9.28;89.79;102214.25;4927040;28;20465;-75
2022/11/11 08:43:11;;;;;;;8.57;3.15;;;;;;;9.34;89.45;102219.34;4959432;28;20056;-74
2022/11/11 08:45:39;;;;;;;11.63;3.50;;;;;;;9.41;89.86;102230.53;4927320;28;20051;-75
2022/11/11 08:48:10;;;;;;;13.02;3.42;;;;;;;9.47;89.01;102239.09;4920884;28;20056;-76
2022/11/11 08:50:40;;;;;;;13.63;3.60;;;;;;;9.54;88.68;102232.75;4928283;28;20052;-75
2022/11/11 08:53:08;;;;;;;16.20;4.07;;;;;;;9.57;87.92;102242.34;4953412;28;20044;-75
2022/11/11 08:55:37;;;;;;;12.18;3.75;;;;;;;9.63;87.46;102244.78;4959282;28;20053;-75
2022/11/11 08:58:05;;;;;;;8.27;3.30;;;;;;;9.72;87.29;102244.50;4942087;28;20047;-75
2022/11/11 09:00:33;;;;;;;6.55;2.83;;;;;;;9.79;86.68;102245.19;4920344;28;20659;-75
2022/11/11 09:03:02;;;;;;;10.85;3.50;;;;;;;9.85;86.74;102248.50;4937319;28;20051;-76
2022/11/11 09:05:30;;;;;;;12.30;2.72;;;;;;;9.91;86.25;102255.38;4922351;28;20060;-75
2022/11/11 09:08:01;;;;;;;8.27;3.10;;;;;;;9.98;85.91;102254.25;4940343;28;20114;-75
2022/11/11 09:10:29;;;;;;;11.82;3.70;;;;;;;10.13;84.60;102255.53;4944940;28;20048;-76
2022/11/11 09:12:59;;;;;;;9.52;3.15;;;;;;;10.13;85.16;102272.22;4960119;28;20045;-75
2022/11/11 09:15:27;;;;;;;9.55;2.97;;;;;;;10.16;84.42;102263.34;4941114;28;20054;-75
2022/11/11 09:17:55;;;;;;;8.85;3.42;;;;;;;10.22;84.46;102257.91;4950083;28;20064;-75
2022/11/11 09:20:23;;;;;;;9.50;3.30;;;;;;;10.31;84.47;102259.41;4949069;28;20543;-75
2022/11/11 09:22:52;;;;;;;14.77;3.97;;;;;;;10.34;83.63;102262.81;4923276;28;20626;-76
2022/11/11 09:25:20;;;;;;;9.10;3.60;;;;;;;10.38;83.17;102250.41;4911026;28;20064;-73
2022/11/11 09:27:55;;;;;;;6.85;2.78;;;;;;;10.44;82.78;102254.59;4942404;28;20738;-74
2022/11/11 09:30:24;;;;;;;10.85;3.20;;;;;;;10.53;82.55;102254.31;4979546;28;20124;-74
2022/11/11 09:32:52;;;;;;;8.68;2.83;;;;;;;10.54;82.12;102256.06;4924529;28;20444;-75
2022/11/11 09:35:20;;;;;;;7.78;2.53;;;;;;;10.59;82.10;102262.03;4942380;28;20053;-75
2022/11/11 09:37:58;;;;;;;5.85;2.83;;;;;;;10.61;81.84;102276.00;4923603;28;20362;-74
2022/11/11 09:40:34;;;;;;;9.60;2.78;;;;;;;10.66;81.71;102276.69;4972820;28;20550;-75
2022/11/11 09:43:04;;;;;;;10.65;3.08;;;;;;;10.69;81.28;102281.03;4905820;28;20039;-74
2022/11/11 09:45:43;;;;;;;9.93;3.40;;;;;;;10.70;81.13;102277.47;4928223;28;20173;-75
2022/11/11 09:48:34;;;;;;;7.32;3.22;;;;;;;10.76;81.04;102282.53;4939168;28;20117;-75
2022/11/11 09:51:03;;;;;;;12.60;3.10;;;;;;;10.80;81.17;102284.16;4933751;28;20197;-75
2022/11/11 09:53:37;;;;;;;7.53;2.90;;;;;;;10.76;80.51;102291.31;4920083;28;20050;-75
2022/11/11 09:56:10;;;;;;;10.95;3.20;;;;;;;10.77;80.61;102298.28;4905021;28;20114;-74
2022/11/11 09:59:11;;;;;;;9.68;3.33;;;;;;;10.75;79.85;102293.97;4908625;28;20048;-74
2022/11/11 10:01:45;;;;;;;10.80;3.20;;;;;;;10.74;79.68;102303.66;4925856;28;20045;-74
2022/11/11 10:04:28;;;;;;;9.45;3.60;;;;;;;10.78;80.06;102296.53;4918503;28;20201;-74
2022/11/11 10:07:06;;;;;;;15.60;2.90;;;;;;;10.81;79.97;102293.78;4922327;28;20055;-76
2022/11/11 10:09:41;;;;;;;9.65;2.45;;;;;;;10.87;80.64;102297.06;4930873;28;20059;-76
2022/11/11 10:12:11;;;;;;;6.93;3.00;;;;;;;10.96;80.10;102292.41;4919187;28;20051;-76
2022/11/11 10:14:44;;;;;;;13.85;3.58;;;;;;;10.92;79.00;102299.56;4900484;28;20036;-75
2022/11/11 10:17:36;;;;;;;7.57;3.15;;;;;;;10.91;79.40;102292.56;4942934;28;20093;-75
2022/11/11 10:20:19;;;;;;;8.05;3.10;;;;;;;10.95;79.85;102288.06;4920457;28;20082;-76
2022/11/11 10:22:50;;;;;;;9.65;2.83;;;;;;;10.98;79.33;102299.34;4945920;28;20118;-76
2022/11/11 10:25:23;;;;;;;6.47;2.80;;;;;;;10.99;79.50;102293.19;4935930;28;20055;-75
2022/11/11 10:27:54;;;;;;;12.43;3.67;;;;;;;11.00;79.62;102294.88;4917445;28;20105;-76
2022/11/11 10:30:25;;;;;;;8.73;2.75;;;;;;;11.06;79.73;102306.97;4919633;28;20060;-76
2022/11/11 10:33:03;;;;;;;11.43;3.10;;;;;;;11.12;79.07;102302.38;4926367;28;20582;-75
2022/11/11 10:35:32;;;;;;;7.38;2.88;;;;;;;11.18;79.39;102305.72;4906134;28;20054;-74
2022/11/11 10:38:09;;;;;;;6.40;3.25;;;;;;;11.22;79.14;102302.06;4923541;28;20516;-75
2022/11/11 10:40:48;;;;;;;11.18;3.13;;;;;;;11.22;78.34;102300.28;4926886;28;20047;-75
2022/11/11 10:43:24;;;;;;;7.30;3.00;;;;;;;11.33;78.33;102300.75;4946083;28;20074;-74
2022/11/11 10:46:06;;;;;;;6.65;2.55;;;;;;;11.35;78.13;102296.31;4940081;28;20051;-75
2022/11/11 10:48:50;;;;;;;8.85;2.50;;;;;;;11.40;78.22;102290.88;4918529;28;20052;-75
2022/11/11 10:51:17;;;;;;;12.00;2.92;;;;;;;11.43;77.76;102298.66;4934168;28;20047;-75
2022/11/11 10:54:13;;;;;;;8.35;3.38;;;;;;;11.47;77.42;102292.34;4926401;28;20052;-75
2022/11/11 10:56:55;;;;;;;7.93;2.70;;;;;;;11.54;77.36;102285.94;4922808;28;20502;-75
2022/11/11 10:59:28;;;;;;;8.38;2.83;;;;;;;11.65;77.63;102289.03;4917475;28;20629;-75
2022/11/11 11:02:21;;;;;;;7.18;2.55;;;;;;;11.72;77.10;102286.19;4919678;28;20113;-76
2022/11/11 11:05:02;;;;;;;8.75;2.42;;;;;;;11.78;76.68;102278.91;4932370;28;20060;-77
2022/11/11 11:07:38;;;;;;;7.30;2.45;;;;;;;11.84;76.38;102268.16;4927409;28;20051;-77
2022/11/11 11:10:19;;;;;;;7.15;3.45;;;;;;;11.87;75.72;102272.44;4933536;28;20052;-78
2022/11/11 11:12:51;;;;;;;6.85;3.08;;;;;;;11.91;75.44;102269.63;4914289;28;20056;-77
2022/11/11 11:15:23;;;;;;;5.47;2.83;;;;;;;11.91;74.96;102264.34;4928547;28;20058;-77
2022/11/11 11:18:00;;;;;;;8.13;2.38;;;;;;;12.00;75.58;102262.28;4930546;28;20056;-77
2022/11/11 11:20:30;;;;;;;7.75;2.72;;;;;;;12.04;74.88;102253.34;4913037;28;20171;-78
2022/11/11 11:22:58;;;;;;;7.03;2.38;;;;;;;12.06;75.27;102254.97;4935109;28;20726;-76
2022/11/11 11:25:32;;;;;;;10.52;3.08;;;;;;;12.18;74.88;102252.78;4940013;28;20079;-76
2022/11/11 11:28:08;;;;;;;6.90;2.50;;;;;;;12.21;75.52;102242.13;4926490;28;20451;-76
2022/11/11 11:30:36;;;;;;;9.75;2.80;;;;;;;12.25;74.67;102252.50;4931187;28;20107;-78
2022/11/11 11:33:06;;;;;;;8.70;2.55;;;;;;;12.27;74.32;102244.50;4921871;28;20134;-77
2022/11/11 11:35:43;;;;;;;10.27;2.53;;;;;;;12.30;73.07;102250.53;4907136;28;20055;-77
2022/11/11 11:38:12;;;;;;;8.80;2.55;;;;;;;12.35;74.23;102248.56;4935028;28;20056;-77
2022/11/11 11:40:55;;;;;;;7.03;2.50;;;;;;;12.35;73.45;102240.63;4923075;28;20052;-78
2022/11/11 11:43:44;;;;;;;8.75;3.03;;;;;;;12.36;72.89;102236.19;4913818;28;20051;-78
2022/11/11 11:46:28;;;;;;;11.38;2.42;;;;;;;12.39;72.89;102233.44;4922725;28;20419;-75
2022/11/11 11:49:21;;;;;;;7.05;2.47;;;;;;;12.42;72.08;102238.59;4931534;28;21125;-75
2022/11/11 11:52:01;;;;;;;6.25;2.53;;;;;;;12.49;73.13;102226.84;4925062;28;20070;-76
2022/11/11 11:54:31;;;;;;;7.97;2.35;;;;;;;12.61;71.58;102236.06;4927936;28;20143;-75
2022/11/11 11:57:03;;;;;;;10.23;3.10;;;;;;;12.66;71.30;102231.44;4921396;28;20059;-75
2022/11/11 11:59:49;;;;;;;7.60;2.22;;;;;;;12.71;71.09;102239.19;4923368;28;20055;-75
2022/11/11 12:02:38;;;;;;;8.48;2.55;;;;;;;12.80;69.79;102247.56;4927216;28;20059;-74
2022/11/11 12:05:24;;;;;;;7.30;2.10;;;;;;;12.74;69.36;102239.88;4914282;28;20048;-75
2022/11/11 12:08:20;;;;;;;8.60;2.00;;;;;;;12.67;70.64;102231.38;4921293;28;20056;-75
2022/11/11 12:10:55;;;;;;;9.38;2.28;;;;;;;12.66;70.16;102232.31;4924424;28;20052;-74
2022/11/11 12:14:03;;;;;;;6.63;2.13;;;;;;;12.70;70.21;102235.69;4922594;28;20113;-74
2022/11/11 12:16:36;;;;;;;7.13;1.80;;;;;;;12.77;69.47;102238.91;4917030;28;20105;-74
2022/11/11 12:19:52;;;;;;;6.60;1.75;;;;;;;12.77;69.30;102230.97;4927382;28;20515;-74
2022/11/11 12:22:22;;;;;;;5.45;2.55;;;;;;;12.75;68.66;102235.47;4921691;28;20159;-74
2022/11/11 12:25:39;;;;;;;4.38;2.00;;;;;;;12.77;69.19;102237.13;4919566;28;20138;-73
2022/11/11 12:28:30;;;;;;;8.23;1.90;;;;;;;12.91;69.20;102228.59;4928275;29;20098;-74
2022/11/11 12:31:13;;;;;;;7.75;2.22;;;;;;;12.94;68.29;102236.41;4943731;28;20047;-75
2022/11/11 12:33:56;;;;;;;7.20;2.22;;;;;;;13.00;69.03;102222.06;4921545;28;20121;-74
2022/11/11 12:36:31;;;;;;;6.25;2.67;;;;;;;13.07;67.03;102232.31;4919038;28;20051;-74
2022/11/11 12:39:18;;;;;;;6.30;2.28;;;;;;;13.23;68.43;102219.28;4927965;28;20159;-75
2022/11/11 12:42:04;;;;;;;5.90;2.30;;;;;;;13.33;65.78;102231.19;4931155;28;20040;-74
2022/11/11 12:44:46;;;;;;;5.50;2.08;;;;;;;13.39;66.44;102222.13;4930838;28;20388;-74
2022/11/11 12:47:23;;;;;;;4.43;1.80;;;;;;;13.40;65.37;102226.47;4947798;28;20060;-75
2022/11/11 12:50:17;;;;;;;8.27;2.40;;;;;;;13.52;64.72;102223.28;4936017;28;20068;-75
2022/11/11 12:52:56;;;;;;;3.60;1.80;;;;;;;13.59;64.55;102222.03;4933108;28;20060;-76
2022/11/11 12:55:26;;;;;;;4.60;1.75;;;;;;;13.62;65.02;102219.25;4987210;28;20742;-74
2022/11/11 12:58:18;;;;;;;7.18;1.92;;;;;;;13.76;64.56;102226.56;4923553;28;20048;-74
2022/11/11 13:01:12;;;;;;;5.28;1.83;;;;;;;13.89;64.85;102221.56;4919069;28;20094;-76
2022/11/11 13:03:51;;;;;;;4.70;2.10;;;;;;;13.85;63.85;102225.28;4933855;28;20065;-76
2022/11/11 13:06:34;;;;;;;9.23;2.42;;;;;;;13.91;63.30;102227.63;4914344;28;20174;-75
2022/11/11 13:09:56;;;;;;;4.90;1.90;;;;;;;13.74;63.92;102224.94;4946184;28;20047;-77
2022/11/11 13:12:31;;;;;;;9.23;3.08;;;;;;;13.74;64.19;102230.22;4978165;28;20053;-76
2022/11/11 13:15:11;;;;;;;4.90;1.83;;;;;;;13.60;64.38;102222.94;4918141;28;20083;-76
2022/11/11 13:17:38;;;;;;;8.18;2.38;;;;;;;13.52;63.95;102222.41;4910682;28;20092;-76
2022/11/11 13:20:44;;;;;;;6.95;2.38;;;;;;;13.46;65.11;102220.88;4923015;28;20082;-77
2022/11/11 13:23:13;;;;;;;5.00;2.13;;;;;;;13.43;64.85;102218.41;4865396;28;20048;-77
2022/11/11 13:25:46;;;;;;;4.75;2.28;;;;;;;13.39;65.29;102216.81;4862796;29;20052;-77
2022/11/11 13:28:29;;;;;;;5.90;2.13;;;;;;;13.36;65.62;102212.50;4894086;28;20059;-77
2022/11/11 13:31:22;;;;;;;5.70;2.65;;;;;;;13.33;66.09;102212.69;4911615;28;20051;-77
2022/11/11 13:33:54;;;;;;;7.03;2.35;;;;;;;13.38;65.64;102215.13;4927002;28;20571;-77
2022/11/11 13:36:27;;;;;;;10.73;2.50;;;;;;;13.31;65.02;102213.66;4919297;28;20098;-76
2022/11/11 13:38:56;;;;;;;8.55;2.15;;;;;;;13.24;66.13;102210.44;4925650;28;20052;-76
2022/11/11 13:41:33;;;;;;;6.82;2.42;;;;;;;13.28;65.82;102211.13;4907898;29;20126;-77
2022/11/11 13:44:06;;;;;;;7.97;2.47;;;;;;;13.19;65.61;102215.03;4918250;28;20093;-77
2022/11/11 13:46:40;;;;;;;5.95;2.08;;;;;;;13.24;65.10;102206.91;5004533;28;20084;-77
2022/11/11 13:49:28;;;;;;;6.43;2.05;;;;;;;13.12;65.09;102210.94;4912069;28;20055;-76
2022/11/11 13:52:03;;;;;;;4.68;2.20;;;;;;;13.05;65.99;102213.00;4924087;29;20953;-76
2022/11/11 13:54:34;;;;;;;8.32;2.13;;;;;;;13.05;67.36;102214.78;4919254;29;20102;-76
2022/11/11 13:57:30;;;;;;;7.57;2.63;;;;;;;13.12;67.03;102217.09;4934098;29;20127;-76
2022/11/11 14:00:03;;;;;;;5.30;1.83;;;;;;;13.07;66.31;102208.50;4995661;28;20058;-75
2022/11/11 14:19:28;;;;;;;9.77;2.92;;;;;;;12.92;67.77;102227.66;4919161;28;20051;-76
2022/11/11 14:30:38;;;;;;;8.18;2.70;;;;;;;12.83;67.95;102220.13;4919342;29;20042;-76
2022/11/11 14:45:28;;;;;;;7.20;2.90;;;;;;;12.68;69.88;102233.06;4917130;28;20119;-77
2022/11/11 14:57:15;;;;;;;10.35;3.60;;;;;;;12.72;70.58;102239.09;4899709;28;20047;-76
2022/11/11 15:21:48;;;;;;;7.50;2.63;;;;;;;12.23;72.12;102232.34;4922758;28;20047;-76
2022/11/11 15:37:26;;;;;;;9.07;3.60;;;;;;;12.14;73.62;102249.41;4922361;29;20038;-77
2022/11/11 15:44:26;;;;;;;11.77;3.17;;;;;;;12.06;73.52;102256.75;4924894;28;20572;-76
2022/11/11 15:55:35;;;;;;;8.57;3.70;;;;;;;11.88;74.39;102261.81;4921077;28;20768;-76
2022/11/11 15:58:29;;;;;;;8.00;3.70;;;;;;;11.82;74.59;102250.63;4897766;28;20471;-76
2022/11/11 16:29:39;;;;;;;7.43;3.28;;;;;;;11.58;75.88;102269.09;4940500;28;20038;-77
2022/11/11 16:41:00;;;;;;;11.10;3.70;;;;;;;11.43;76.61;102276.69;4923448;28;20066;-75
2022/11/11 17:06:17;;;;;;;5.05;3.15;;;;;;;11.34;76.84;102284.00;4928551;28;20047;-76
2022/11/11 17:35:50;;;;;;;12.82;5.55;;;;;;;11.03;78.54;102288.63;4921354;28;20413;-76
2022/11/11 17:51:08;;;;;;;15.48;5.18;;;;;;;10.95;78.37;102288.91;4920960;28;20075;-77
2022/11/11 18:03:16;;;;;;;11.65;4.70;;;;;;;10.99;77.40;102301.09;4927321;28;20063;-76
2022/11/11 18:31:55;;;;;;;12.52;6.00;;;;;;;10.85;77.43;102303.28;4922295;28;20467;-77
2022/11/11 18:39:33;;;;;;;15.38;8.93;;;;;;;10.82;78.06;102309.53;4933014;28;20059;-76
2022/11/11 18:55:12;;;;;;;17.65;10.02;;;;;;;10.70;77.44;102324.88;4916680;28;20030;-76
2022/11/11 19:01:58;;;;;;;18.77;9.40;;;;;;;10.69;77.58;102325.78;4920865;28;20055;-76
2022/11/11 19:13:43;;;;;;;34.85;21.50;;;;;;;10.63;77.33;102334.75;4920966;28;20054;-77
2022/11/11 19:24:01;;;;;;;20.60;11.40;;;;;;;10.55;77.42;102349.94;4921196;28;20131;-75
2022/11/11 19:26:30;;;;;;;22.75;10.32;;;;;;;10.53;77.69;102347.34;4922747;29;20107;-76
2022/11/11 19:33:18;;;;;;;18.88;10.20;;;;;;;10.53;77.39;102354.38;4930300;28;20089;-76
2022/11/11 19:48:58;;;;;;;19.88;11.43;;;;;;;10.28;78.13;102363.03;4931333;29;20050;-76
2022/11/11 19:51:29;;;;;;;19.65;10.32;;;;;;;10.25;78.41;102359.63;4931907;28;20047;-76
2022/11/11 20:03:05;;;;;;;16.73;8.07;;;;;;;10.26;78.50;102361.34;4929342;28;20117;-75
2022/11/11 20:06:24;;;;;;;18.55;9.88;;;;;;;10.26;78.54;102370.09;4873255;28;20196;-75
2022/11/11 20:17:40;;;;;;;13.48;7.30;;;;;;;10.15;79.55;102374.81;4870406;28;20044;-76
2022/11/11 20:20:45;;;;;;;17.30;6.97;;;;;;;10.12;79.79;102377.50;4867662;28;20052;-76
2022/11/11 20:32:26;;;;;;;12.15;7.15;;;;;;;10.08;79.45;102387.25;4870268;29;20176;-76
2022/11/11 21:00:04;;;;;;;11.23;5.95;;;;;;;9.98;79.31;102387.56;4929866;28;20182;-76
2022/11/11 21:37:28;;;;;;;15.93;9.65;;;;;;;9.91;77.68;102410.56;4927908;28;20127;-77
2022/11/11 21:39:56;;;;;;;20.75;12.45;;;;;;;9.88;77.71;102413.28;4923165;29;20078;-75
2022/11/11 21:42:27;;;;;;;24.65;14.00;;;;;;;9.89;77.84;102410.59;4927751;28;20071;-75
2022/11/11 22:02:27;;;;;;;15.05;6.22;;;;;;;9.65;78.52;102408.63;4925870;29;20054;-77
2022/11/11 22:04:55;;;;;;;10.65;6.90;;;;;;;9.68;78.55;102420.81;4929053;28;20044;-75
2022/11/11 22:07:25;;;;;;;11.23;6.05;;;;;;;9.69;78.45;102412.06;4939004;28;20060;-76
2022/11/11 22:09:52;;;;;;;11.32;6.28;;;;;;;9.68;78.50;102411.19;4927323;28;20083;-75
2022/11/11 22:20:45;;;;;;;14.43;6.90;;;;;;;9.60;78.06;102424.53;4933197;28;20754;-77
2022/11/11 22:40:03;;;;;;;17.58;8.98;;;;;;;9.58;77.29;102435.97;4929466;28;20110;-77
2022/11/11 22:46:56;;;;;;;26.17;13.15;;;;;;;9.49;77.70;102429.19;4928388;28;20055;-76
2022/11/11 23:06:20;;;;;;;20.75;13.43;;;;;;;9.31;78.42;102421.78;4954987;28;20056;-75
2022/11/11 23:31:39;;;;;;;20.38;10.18;;;;;;;9.22;78.13;102433.38;4936433;28;20129;-76
2022/11/11 23:38:31;;;;;;;20.48;9.55;;;;;;;9.12;78.55;102424.00;4921052;28;20062;-77
2022/11/11 23:53:56;;;;;;;17.00;10.37;;;;;;;9.01;78.96;102413.75;4924684;28;20258;-75
